Ulmer, SC

3:07 PM EDT on August 04, 2015 (GMT -0400)
JCO Farms | | Change Station
CLOSE
Current Station
Personal Weather Station
Location: Fairfax, SC
Elevation: 167 ft
Nearby Weather Stations

Elev 167 ft 32.99 °N, 81.29 °W | Updated 23 seconds ago

Partly Cloudy
Partly Cloudy
96.6 °F
Feels Like 106 °F
N
2.9
Wind Variable Wind from WSW
Gusts 4.9 mph

Today
High -- | Low -- °F
--% Chance of Precip.
Yesterday
High -- | Low -- °F
Precip. -- in
6:40 AM 8:21 PM
Waning Gibbous, 75% visible
Pressure 29.95 in
Visibility 10.0 miles
Clouds Few 6000 ft
Heat Index 106 °F
Dew Point 72 °F
Humidity 46%
Rainfall 0.00 in
Snow Depth Not available.
UV 8.0 out of 12
Pollen 5.60 out of 12
Air Quality Not available.
Flu Activity Not available.
METAR KOGB 041853Z AUTO VRB06KT 10SM FEW060 34/19 A2996 RMK AO2 SLP141 T03440194

More Conditions Fewer Conditions

Pressure 29.95 in
Visibility 10.0 miles
Clouds Few 6000 ft
Heat Index 106 °F
Dew Point 72 °F
Humidity 46%
Rainfall 0.00 in
Snow Depth Not available.
UV 8.0 out of 12
Pollen 5.60 out of 12
Air Quality Not available.
Flu Activity Not available.
METAR KOGB 041853Z AUTO VRB06KT 10SM FEW060 34/19 A2996 RMK AO2 SLP141 T03440194

More Conditions Fewer Conditions

10-Day Weather Forecast

×

Almanac

Astronomy

Aug. 04, 2015 Rise Set
Actual Time
Civil Twilight
Nautical Twilight
Astronomical Twilight
Moon
Length of Visible Light
Length of Day
Tomorrow will be .
, % of the Moon is Illuminated

Today's Extremes

State Highs State Lows

Community

WunderPhotos

Upload Photos

1,843,952 photos uploaded!

WunderBlogs® & News

Nearby

Air Quality

  Air Quality AQ Index Pollutant
Not available.

Snow Depth

Station Depth Elevation

Earthquake Activity

City Distance Mag. Time & Date
Minimum magnitude displayed is 2.5.

Coastal Water Temperatures

Place Temperature

Stations

Nearby Weather Stations

Station Location Temp. Windchill Dew Point Humidity Wind Precip. Elev Updated Type